createdAt,value
2019-01-09T00:00:56.767Z,11.83
2019-01-09T00:03:25.060Z,11.37
2019-01-09T00:05:53.615Z,12.50
2019-01-09T00:08:22.132Z,11.10
2019-01-09T00:10:50.586Z,11.70
2019-01-09T00:13:18.983Z,11.33
2019-01-09T00:15:47.289Z,12.17
2019-01-09T00:18:15.754Z,13.20
2019-01-09T00:20:44.017Z,14.40
2019-01-09T00:23:12.606Z,13.80
2019-01-09T00:25:41.281Z,12.83
2019-01-09T00:28:09.559Z,12.63
2019-01-09T00:30:38.283Z,12.27
2019-01-09T00:33:06.933Z,13.00
2019-01-09T00:35:37.491Z,13.30
2019-01-09T00:38:06.480Z,14.50
2019-01-09T00:40:35.036Z,13.77
2019-01-09T00:43:03.713Z,13.57
2019-01-09T00:45:32.418Z,12.63
2019-01-09T00:48:00.774Z,11.93
2019-01-09T00:50:29.347Z,11.27
2019-01-09T00:52:58.338Z,10.90
2019-01-09T00:55:26.630Z,11.60
2019-01-09T00:57:55.705Z,10.93
2019-01-09T01:00:24.134Z,11.13
2019-01-09T01:03:12.736Z,11.97
2019-01-09T01:06:40.666Z,10.70
2019-01-09T01:10:02.983Z,11.07
2019-01-09T01:13:28.990Z,11.33
2019-01-09T01:16:43.882Z,11.13
2019-01-09T01:19:34.717Z,11.73
2019-01-09T01:22:28.762Z,10.93
2019-01-09T01:25:11.918Z,11.53
2019-01-09T01:28:12.015Z,10.57
2019-01-09T01:31:28.035Z,11.57
2019-01-09T01:34:47.689Z,10.87
2019-01-09T01:38:12.721Z,11.53
2019-01-09T01:41:31.353Z,10.87
2019-01-09T01:44:30.577Z,11.13
2019-01-09T01:47:32.205Z,9.90
2019-01-09T01:50:21.598Z,10.10
2019-01-09T01:53:06.853Z,9.90
2019-01-09T01:56:31.731Z,10.90
2019-01-09T01:59:12.945Z,10.50
2019-01-09T02:02:26.999Z,10.50
2019-01-09T02:05:35.345Z,10.70
2019-01-09T02:08:19.676Z,10.03
2019-01-09T02:11:50.809Z,9.80
2019-01-09T02:14:48.800Z,9.67
2019-01-09T02:17:41.837Z,9.10
2019-01-09T02:20:57.445Z,9.57
2019-01-09T02:24:02.548Z,10.17
2019-01-09T02:26:43.344Z,9.27
2019-01-09T02:29:55.226Z,9.30
2019-01-09T02:32:36.010Z,10.20
2019-01-09T02:35:04.668Z,9.90
2019-01-09T02:37:33.348Z,11.20
2019-01-09T02:40:02.069Z,9.37
2019-01-09T02:42:30.753Z,9.20
2019-01-09T02:44:58.999Z,8.83
2019-01-09T02:47:28.438Z,9.53
2019-01-09T02:49:57.002Z,9.13
2019-01-09T02:52:25.683Z,8.93
2019-01-09T02:54:54.378Z,7.90
2019-01-09T02:57:25.361Z,9.70
2019-01-09T02:59:55.229Z,8.97
2019-01-09T03:02:23.881Z,10.47
2019-01-09T03:04:51.978Z,9.83
2019-01-09T03:07:20.673Z,9.90
2019-01-09T03:09:49.214Z,9.57
2019-01-09T03:12:17.600Z,9.63
2019-01-09T03:14:46.381Z,9.73
2019-01-09T03:17:14.983Z,9.50
2019-01-09T03:19:44.078Z,8.50
2019-01-09T03:22:12.780Z,7.93
2019-01-09T03:24:41.458Z,8.17
2019-01-09T03:27:10.422Z,7.57
2019-01-09T03:29:39.055Z,7.53
2019-01-09T03:32:07.707Z,7.60
2019-01-09T03:34:37.221Z,7.17
2019-01-09T03:37:05.918Z,7.43
2019-01-09T03:39:34.576Z,7.10
2019-01-09T03:42:03.279Z,7.37
2019-01-09T03:44:31.977Z,7.10
2019-01-09T03:47:00.632Z,6.77
2019-01-09T03:49:29.469Z,7.30
2019-01-09T03:51:58.048Z,7.57
2019-01-09T03:54:26.281Z,6.87
2019-01-09T03:56:54.978Z,6.47
2019-01-09T03:59:23.678Z,6.70
2019-01-09T04:01:52.349Z,6.13
2019-01-09T04:04:21.018Z,6.20
2019-01-09T04:06:49.731Z,6.00
2019-01-09T04:09:17.989Z,6.13
2019-01-09T04:11:46.670Z,5.83
2019-01-09T04:14:15.461Z,6.30
2019-01-09T04:16:44.053Z,5.40
2019-01-09T04:19:12.744Z,6.10
2019-01-09T04:21:41.441Z,6.03
2019-01-09T04:24:10.137Z,6.10
2019-01-09T04:26:38.592Z,5.13
2019-01-09T04:29:07.001Z,6.17
2019-01-09T04:31:35.546Z,6.20
2019-01-09T04:34:04.232Z,6.60
2019-01-09T04:36:32.939Z,7.53
2019-01-09T04:39:01.196Z,7.53
2019-01-09T04:41:30.703Z,7.43
2019-01-09T04:43:59.441Z,7.13
2019-01-09T04:46:29.096Z,7.73
2019-01-09T04:48:57.359Z,6.80
2019-01-09T04:51:26.064Z,7.20
2019-01-09T04:53:54.874Z,6.07
2019-01-09T04:56:23.439Z,6.73
2019-01-09T04:58:52.127Z,5.77
2019-01-09T05:01:20.605Z,6.33
2019-01-09T05:03:49.318Z,5.93
2019-01-09T05:06:17.830Z,5.57
2019-01-09T05:08:46.145Z,5.80
2019-01-09T05:11:14.718Z,5.13
2019-01-09T05:13:43.426Z,5.03
2019-01-09T05:16:12.498Z,4.83
2019-01-09T05:18:40.874Z,4.93
2019-01-09T05:21:09.177Z,4.90
2019-01-09T05:23:37.312Z,5.13
2019-01-09T05:26:06.005Z,5.07
2019-01-09T05:28:34.714Z,5.10
2019-01-09T05:31:07.719Z,5.43
2019-01-09T05:33:33.022Z,5.53
2019-01-09T05:36:01.590Z,4.77
2019-01-09T05:38:30.254Z,5.47
2019-01-09T05:40:58.946Z,5.43
2019-01-09T05:43:27.865Z,5.27
2019-01-09T05:45:56.512Z,6.03
2019-01-09T05:48:25.213Z,6.23
2019-01-09T05:50:53.935Z,6.43
2019-01-09T05:53:22.584Z,6.47
2019-01-09T05:55:51.268Z,7.03
2019-01-09T05:58:19.975Z,7.30
2019-01-09T06:00:48.654Z,6.40
2019-01-09T06:03:17.325Z,6.53
2019-01-09T06:05:46.020Z,8.20
2019-01-09T06:08:14.802Z,9.90
2019-01-09T06:10:43.370Z,10.23
2019-01-09T06:13:12.084Z,7.30
2019-01-09T06:15:41.221Z,6.53
2019-01-09T06:18:09.854Z,7.50
2019-01-09T06:20:38.553Z,6.33
2019-01-09T06:23:06.801Z,7.03
2019-01-09T06:25:37.422Z,6.57
2019-01-09T06:28:06.056Z,5.83
2019-01-09T06:30:34.505Z,5.10
2019-01-09T06:33:02.887Z,5.63
2019-01-09T06:35:31.175Z,5.87
2019-01-09T06:38:03.525Z,7.10
2019-01-09T06:40:32.143Z,6.97
2019-01-09T06:43:00.805Z,7.37
2019-01-09T06:45:29.063Z,7.80
2019-01-09T06:47:57.773Z,7.50
2019-01-09T06:50:26.037Z,7.23
2019-01-09T06:52:54.415Z,7.53
2019-01-09T06:55:23.021Z,7.77
2019-01-09T06:57:51.251Z,8.60
2019-01-09T07:00:19.528Z,8.47
2019-01-09T07:02:47.826Z,8.47
2019-01-09T07:05:16.503Z,8.17
2019-01-09T07:07:45.188Z,10.50
2019-01-09T07:10:13.907Z,9.33
2019-01-09T07:12:42.578Z,8.27
2019-01-09T07:15:13.731Z,8.10
2019-01-09T07:17:41.957Z,8.37
2019-01-09T07:20:10.673Z,9.23
2019-01-09T07:22:38.947Z,8.43
2019-01-09T07:25:07.969Z,6.83
2019-01-09T07:27:36.310Z,6.80
2019-01-09T07:30:05.439Z,6.60
2019-01-09T07:32:34.332Z,6.40
2019-01-09T07:35:02.796Z,7.77
2019-01-09T07:37:31.472Z,7.87
2019-01-09T07:40:00.916Z,6.33
2019-01-09T07:42:29.437Z,5.10
2019-01-09T07:44:58.135Z,5.20
2019-01-09T07:47:26.851Z,5.67
2019-01-09T07:49:55.498Z,5.50
2019-01-09T07:52:23.773Z,5.20
2019-01-09T07:54:52.290Z,5.77
2019-01-09T07:57:21.676Z,5.57
2019-01-09T07:59:50.267Z,6.70
2019-01-09T08:02:19.680Z,5.97
2019-01-09T08:04:48.225Z,5.70
2019-01-09T08:07:16.915Z,6.50
2019-01-09T08:09:45.637Z,8.30
2019-01-09T08:12:14.285Z,6.90
2019-01-09T08:14:42.969Z,6.83
2019-01-09T08:17:11.472Z,7.30
2019-01-09T08:19:40.133Z,6.77
2019-01-09T08:22:08.410Z,6.27
2019-01-09T08:24:37.126Z,6.10
2019-01-09T08:27:05.937Z,5.50
2019-01-09T08:29:34.269Z,5.07
2019-01-09T08:32:03.008Z,4.80
2019-01-09T08:34:31.538Z,5.40
2019-01-09T08:36:59.819Z,4.77
2019-01-09T08:39:29.021Z,5.27
2019-01-09T08:41:57.906Z,4.63
2019-01-09T08:44:26.588Z,4.87
2019-01-09T08:46:55.285Z,4.80
2019-01-09T08:49:23.954Z,4.40
2019-01-09T08:51:52.650Z,4.33
2019-01-09T08:54:21.350Z,4.30
2019-01-09T08:56:50.012Z,4.20
2019-01-09T08:59:18.505Z,4.20
2019-01-09T09:01:46.917Z,3.63
2019-01-09T09:04:15.476Z,3.93
2019-01-09T09:06:44.151Z,3.77
2019-01-09T09:09:13.585Z,3.80
2019-01-09T09:11:42.142Z,3.97
2019-01-09T09:14:10.822Z,3.67
2019-01-09T09:16:39.231Z,3.93
2019-01-09T09:19:07.790Z,3.83
2019-01-09T09:21:36.583Z,3.77
2019-01-09T09:24:05.184Z,4.20
2019-01-09T09:26:34.970Z,4.27
2019-01-09T09:29:03.962Z,4.13
2019-01-09T09:31:33.526Z,3.67
2019-01-09T09:34:01.852Z,4.57
2019-01-09T09:36:30.223Z,6.90
2019-01-09T09:38:58.529Z,6.07
2019-01-09T09:41:27.182Z,6.00
2019-01-09T09:43:55.256Z,4.93
2019-01-09T09:46:24.506Z,4.40
2019-01-09T09:48:58.675Z,4.13
2019-01-09T09:51:27.270Z,5.43
2019-01-09T09:53:55.934Z,4.60
2019-01-09T09:56:24.625Z,3.47
2019-01-09T09:58:53.330Z,2.93
2019-01-09T10:01:22.001Z,3.13
2019-01-09T10:03:50.647Z,3.00
2019-01-09T10:06:19.085Z,3.40
2019-01-09T10:08:47.839Z,3.00
2019-01-09T10:11:17.121Z,3.27
2019-01-09T10:13:45.811Z,3.03
2019-01-09T10:16:14.088Z,3.00
2019-01-09T10:18:43.157Z,2.93
2019-01-09T10:21:11.911Z,3.47
2019-01-09T10:23:40.595Z,3.90
2019-01-09T10:26:09.050Z,3.40
2019-01-09T10:28:37.480Z,3.20
2019-01-09T10:31:06.090Z,3.33
2019-01-09T10:33:34.937Z,2.80
2019-01-09T10:36:03.625Z,3.20
2019-01-09T10:38:37.968Z,2.90
2019-01-09T10:41:02.387Z,2.90
2019-01-09T10:43:30.799Z,2.97
2019-01-09T10:46:00.781Z,3.23
2019-01-09T10:48:29.465Z,2.90
2019-01-09T10:50:58.205Z,2.70
2019-01-09T10:53:26.652Z,3.00
2019-01-09T10:55:55.051Z,2.67
2019-01-09T10:58:23.873Z,2.90
2019-01-09T11:00:52.493Z,2.80
2019-01-09T11:03:21.024Z,2.97
2019-01-09T11:05:50.459Z,2.80
2019-01-09T11:08:20.420Z,2.83
2019-01-09T11:10:49.816Z,2.90
2019-01-09T11:13:18.211Z,3.80
2019-01-09T11:15:46.859Z,4.47
2019-01-09T11:18:15.191Z,2.87
2019-01-09T11:20:43.832Z,3.90
2019-01-09T11:23:12.303Z,4.60
2019-01-09T11:25:40.988Z,4.53
2019-01-09T11:28:09.400Z,4.87
2019-01-09T11:30:38.172Z,5.50
2019-01-09T11:33:06.633Z,5.40
2019-01-09T11:35:36.579Z,6.13
2019-01-09T11:38:05.039Z,3.90
2019-01-09T11:40:33.544Z,3.00
2019-01-09T11:43:03.753Z,3.13
2019-01-09T11:45:32.749Z,3.33
2019-01-09T11:48:01.304Z,3.50
2019-01-09T11:50:48.718Z,3.50
2019-01-09T11:53:17.483Z,3.70
2019-01-09T11:55:45.951Z,3.37
2019-01-09T11:58:15.433Z,2.83
2019-01-09T12:00:45.354Z,2.47
2019-01-09T12:03:14.293Z,2.43
2019-01-09T12:05:44.101Z,2.40
2019-01-09T12:08:16.023Z,2.87
2019-01-09T12:10:44.680Z,2.80
2019-01-09T12:13:13.524Z,2.10
2019-01-09T12:15:42.154Z,2.30
2019-01-09T12:18:10.829Z,2.60
2019-01-09T12:20:39.522Z,2.20
2019-01-09T12:23:07.814Z,2.97
2019-01-09T12:25:36.462Z,3.47
2019-01-09T12:28:05.160Z,2.87
2019-01-09T12:30:33.871Z,2.63
2019-01-09T12:33:02.532Z,2.53
2019-01-09T12:35:31.748Z,2.80
2019-01-09T12:38:00.324Z,2.10
2019-01-09T12:40:28.982Z,2.30
2019-01-09T12:42:57.685Z,2.30
2019-01-09T12:45:26.186Z,2.10
2019-01-09T12:47:54.539Z,1.90
2019-01-09T12:50:28.378Z,2.30
2019-01-09T12:52:56.926Z,2.17
2019-01-09T12:55:28.033Z,2.40
2019-01-09T12:57:56.753Z,2.43
2019-01-09T13:00:31.242Z,2.90
2019-01-09T13:03:00.261Z,3.17
2019-01-09T13:05:31.453Z,4.03
2019-01-09T13:08:06.055Z,3.17
2019-01-09T13:10:34.537Z,3.53
2019-01-09T13:13:03.311Z,2.40
2019-01-09T13:15:31.880Z,3.57
2019-01-09T13:18:01.226Z,3.80
2019-01-09T13:20:39.282Z,3.93
2019-01-09T13:23:08.433Z,3.03
2019-01-09T13:25:41.836Z,3.57
2019-01-09T13:28:11.106Z,4.40
2019-01-09T13:30:39.470Z,3.90
2019-01-09T13:33:08.099Z,3.53
2019-01-09T13:35:36.783Z,2.57
2019-01-09T13:38:05.443Z,3.03
2019-01-09T13:40:34.431Z,4.40
2019-01-09T13:43:03.118Z,2.90
2019-01-09T13:45:31.888Z,2.70
2019-01-09T13:48:00.372Z,3.40
2019-01-09T13:50:32.976Z,4.13
2019-01-09T13:53:01.626Z,4.10
2019-01-09T13:55:30.401Z,3.70
2019-01-09T13:57:59.001Z,3.33
2019-01-09T14:00:27.379Z,3.30
2019-01-09T14:02:55.960Z,3.10
2019-01-09T14:05:24.753Z,3.40
2019-01-09T14:07:53.347Z,3.20
2019-01-09T14:10:29.229Z,2.80
2019-01-09T14:13:01.015Z,3.43
2019-01-09T14:15:29.668Z,4.30
2019-01-09T14:17:58.323Z,3.00
2019-01-09T14:20:26.592Z,2.90
2019-01-09T14:22:55.067Z,3.80
2019-01-09T14:25:23.355Z,4.00
2019-01-09T14:27:52.025Z,4.43
2019-01-09T14:30:23.063Z,3.57
2019-01-09T14:32:52.277Z,3.77
2019-01-09T14:35:38.861Z,3.67
2019-01-09T14:38:07.267Z,3.10
2019-01-09T14:40:37.231Z,3.63
2019-01-09T14:43:06.318Z,3.60
2019-01-09T14:45:34.969Z,3.60
2019-01-09T14:48:03.645Z,4.10
2019-01-09T14:50:32.758Z,3.40
2019-01-09T14:53:01.401Z,4.47
2019-01-09T14:55:30.402Z,3.43
2019-01-09T14:57:58.888Z,4.13
2019-01-09T15:00:51.061Z,3.67
2019-01-09T15:03:21.493Z,3.90
2019-01-09T15:06:09.537Z,5.67
2019-01-09T15:08:59.380Z,6.47
2019-01-09T15:11:28.065Z,4.50
2019-01-09T15:13:57.129Z,3.30
2019-01-09T15:16:25.950Z,3.20
2019-01-09T15:18:54.610Z,3.37
2019-01-09T15:21:23.301Z,3.07
2019-01-09T15:23:52.140Z,2.80
2019-01-09T15:26:20.726Z,3.20
2019-01-09T15:28:49.373Z,3.10
2019-01-09T15:31:18.799Z,2.80
2019-01-09T15:33:47.354Z,2.83
2019-01-09T15:36:16.035Z,2.70
2019-01-09T15:38:44.731Z,2.70
2019-01-09T15:41:13.418Z,3.40
2019-01-09T15:43:41.692Z,4.10
2019-01-09T15:46:10.390Z,5.17
2019-01-09T15:48:39.067Z,4.00
2019-01-09T15:51:07.737Z,6.40
2019-01-09T15:53:36.446Z,9.03
2019-01-09T15:56:04.812Z,8.10
2019-01-09T15:58:33.377Z,6.20
2019-01-09T16:01:02.177Z,9.03
2019-01-09T16:03:30.755Z,11.10
2019-01-09T16:05:59.565Z,7.70
2019-01-09T16:08:28.362Z,12.20
2019-01-09T16:10:56.810Z,15.00
2019-01-09T16:13:25.539Z,11.10
2019-01-09T16:15:54.032Z,14.13
2019-01-09T16:18:23.241Z,17.73
2019-01-09T16:20:51.754Z,17.00
2019-01-09T16:23:20.183Z,9.27
2019-01-09T16:25:48.729Z,5.43
2019-01-09T16:28:17.273Z,3.57
2019-01-09T16:31:18.402Z,3.67
2019-01-09T16:33:47.149Z,3.50
2019-01-09T16:36:16.754Z,3.70
2019-01-09T16:38:45.735Z,4.23
2019-01-09T16:41:14.125Z,4.10
2019-01-09T16:43:42.701Z,4.03
2019-01-09T16:46:11.422Z,5.03
2019-01-09T16:48:40.081Z,5.47
2019-01-09T16:51:10.819Z,5.80
2019-01-09T16:53:40.186Z,5.80
2019-01-09T16:56:08.646Z,8.70
2019-01-09T16:58:37.267Z,8.33
2019-01-09T17:01:06.483Z,6.80
2019-01-09T17:03:35.203Z,7.90
2019-01-09T17:06:04.225Z,8.23
2019-01-09T17:08:33.066Z,11.57
2019-01-09T17:11:01.746Z,11.57
2019-01-09T17:13:30.826Z,8.93
2019-01-09T17:15:59.529Z,5.63
2019-01-09T17:18:27.988Z,5.50
2019-01-09T17:20:56.467Z,5.83
2019-01-09T17:23:24.892Z,5.17
2019-01-09T17:25:53.794Z,5.27
2019-01-09T17:28:22.226Z,6.40
2019-01-09T17:30:51.019Z,5.43
2019-01-09T17:33:19.604Z,4.80
2019-01-09T17:35:48.158Z,4.93
2019-01-09T17:38:16.886Z,6.73
2019-01-09T17:40:46.780Z,6.23
2019-01-09T17:43:15.470Z,10.00
2019-01-09T17:45:43.871Z,13.73
2019-01-09T17:48:12.411Z,20.63
2019-01-09T17:50:41.475Z,24.17
2019-01-09T17:53:12.053Z,16.77
2019-01-09T17:55:40.920Z,9.67
2019-01-09T17:58:09.195Z,9.23
2019-01-09T18:00:39.725Z,14.30
2019-01-09T18:03:08.194Z,13.70
2019-01-09T18:05:36.631Z,12.23
2019-01-09T18:08:10.964Z,31.97
2019-01-09T18:10:36.513Z,36.80
2019-01-09T18:13:05.416Z,24.70
2019-01-09T18:15:34.087Z,26.37
2019-01-09T18:18:03.117Z,18.77
2019-01-09T18:20:31.380Z,18.03
2019-01-09T18:22:59.938Z,17.27
2019-01-09T18:25:29.537Z,16.40
2019-01-09T18:27:57.950Z,15.20
2019-01-09T18:30:29.689Z,14.87
2019-01-09T18:33:04.520Z,14.87
2019-01-09T18:35:42.054Z,12.93
2019-01-09T18:38:38.991Z,10.33
2019-01-09T18:41:36.839Z,9.47
2019-01-09T18:44:25.357Z,12.13
2019-01-09T18:47:35.192Z,13.40
2019-01-09T18:50:54.068Z,25.93
2019-01-09T18:53:30.181Z,32.90
2019-01-09T18:55:58.727Z,24.90
2019-01-09T18:58:27.337Z,19.73
2019-01-09T19:00:55.814Z,19.50
2019-01-09T19:03:24.405Z,26.70
2019-01-09T19:05:53.062Z,21.00
2019-01-09T19:08:21.795Z,13.33
2019-01-09T19:10:50.467Z,24.60
2019-01-09T19:13:18.844Z,19.60
2019-01-09T19:15:47.511Z,19.77
2019-01-09T19:18:17.341Z,20.70
2019-01-09T19:20:45.990Z,15.37
2019-01-09T19:23:14.789Z,8.77
2019-01-09T19:25:43.190Z,8.80
2019-01-09T19:28:11.538Z,7.87
2019-01-09T19:30:39.913Z,8.70
2019-01-09T19:33:08.868Z,7.43
2019-01-09T19:35:37.774Z,8.40
2019-01-09T19:38:06.805Z,8.70
2019-01-09T19:40:35.067Z,9.80
2019-01-09T19:43:03.746Z,12.93
2019-01-09T19:45:32.664Z,14.17
2019-01-09T19:48:01.342Z,13.63
2019-01-09T19:50:30.217Z,13.23
2019-01-09T19:52:58.914Z,14.40
2019-01-09T19:55:31.496Z,13.87
2019-01-09T19:58:00.694Z,16.13
2019-01-09T20:00:30.482Z,17.20
2019-01-09T20:03:03.521Z,16.17
2019-01-09T20:05:32.828Z,14.73
2019-01-09T20:08:02.398Z,13.73
2019-01-09T20:10:31.385Z,12.70
2019-01-09T20:12:59.834Z,13.17
2019-01-09T20:15:28.658Z,12.30
2019-01-09T20:17:57.800Z,13.77
2019-01-09T20:20:27.275Z,13.53
2019-01-09T20:22:55.906Z,14.83
2019-01-09T20:25:24.978Z,20.30
2019-01-09T20:27:53.819Z,24.67
2019-01-09T20:30:27.550Z,17.33
2019-01-09T20:32:56.286Z,11.27
2019-01-09T20:35:25.376Z,14.33
2019-01-09T20:37:55.249Z,14.90
2019-01-09T20:40:24.336Z,15.10
2019-01-09T20:42:52.922Z,12.43
2019-01-09T20:45:21.902Z,13.77
2019-01-09T20:47:50.684Z,11.30
2019-01-09T20:50:24.573Z,15.63
2019-01-09T20:52:53.090Z,15.07
2019-01-09T20:55:24.321Z,12.80
2019-01-09T20:57:53.873Z,11.53
2019-01-09T21:00:29.356Z,12.63
2019-01-09T21:03:02.631Z,12.63
2019-01-09T21:05:36.473Z,12.30
2019-01-09T21:08:06.182Z,12.47
2019-01-09T21:10:34.451Z,9.93
2019-01-09T21:13:03.418Z,11.23
2019-01-09T21:15:32.318Z,10.40
2019-01-09T21:18:00.966Z,12.70
2019-01-09T21:20:29.696Z,12.20
2019-01-09T21:22:58.668Z,11.20
2019-01-09T21:25:28.098Z,11.87
2019-01-09T21:27:56.886Z,15.13
2019-01-09T21:30:25.907Z,20.93
2019-01-09T21:32:54.472Z,16.63
2019-01-09T21:35:30.814Z,15.30
2019-01-09T21:37:59.778Z,18.93
2019-01-09T21:40:28.899Z,16.30
2019-01-09T21:42:57.897Z,17.93
2019-01-09T21:45:26.737Z,18.40
2019-01-09T21:47:55.482Z,13.60
2019-01-09T21:50:25.182Z,10.10
2019-01-09T21:52:54.223Z,9.43
2019-01-09T21:55:23.603Z,12.13
2019-01-09T21:57:52.294Z,15.23
2019-01-09T22:00:24.995Z,13.57
2019-01-09T22:02:53.691Z,15.87
2019-01-09T22:05:24.149Z,19.53
2019-01-09T22:07:53.773Z,23.27
2019-01-09T22:10:24.964Z,29.97
2019-01-09T22:12:53.745Z,39.30
2019-01-09T22:15:23.513Z,38.10
2019-01-09T22:17:52.300Z,33.20
2019-01-09T22:20:20.589Z,31.80
2019-01-09T22:22:49.077Z,51.97
2019-01-09T22:25:17.438Z,32.90
2019-01-09T22:27:46.238Z,19.40
2019-01-09T22:30:17.288Z,18.53
2019-01-09T22:32:45.954Z,18.80
2019-01-09T22:35:14.572Z,19.03
2019-01-09T22:37:43.222Z,21.27
2019-01-09T22:40:13.462Z,25.33
2019-01-09T22:42:42.358Z,35.77
2019-01-09T22:45:11.535Z,31.00
2019-01-09T22:47:39.809Z,21.07
2019-01-09T22:50:11.095Z,16.70
2019-01-09T22:52:39.638Z,12.50
2019-01-09T22:55:08.789Z,11.50
2019-01-09T22:57:37.343Z,10.23
2019-01-09T23:00:53.004Z,9.57
2019-01-09T23:03:21.711Z,8.60
2019-01-09T23:05:50.450Z,9.00
2019-01-09T23:08:19.459Z,9.30
2019-01-09T23:10:54.408Z,9.70
2019-01-09T23:13:18.276Z,10.23
2019-01-09T23:15:47.067Z,10.33
2019-01-09T23:18:15.645Z,9.80
2019-01-09T23:20:44.417Z,10.33
2019-01-09T23:23:12.733Z,9.80
2019-01-09T23:25:41.495Z,9.90
2019-01-09T23:28:09.968Z,9.13
2019-01-09T23:30:39.377Z,9.87
2019-01-09T23:33:07.959Z,9.87
2019-01-09T23:35:38.179Z,9.47
2019-01-09T23:38:07.393Z,9.47
2019-01-09T23:40:35.854Z,10.10
2019-01-09T23:43:04.515Z,10.57
2019-01-09T23:45:33.054Z,10.00
2019-01-09T23:48:01.698Z,9.83
2019-01-09T23:50:30.179Z,9.47
2019-01-09T23:52:58.897Z,10.00
2019-01-09T23:55:27.260Z,10.03
2019-01-09T23:57:55.836Z,9.50
